createdAt,value
2023-02-14T00:02:38.689Z,65.56
2023-02-14T00:05:45.590Z,64.87
2023-02-14T00:08:54.363Z,65.42
2023-02-14T00:12:01.166Z,65.01
2023-02-14T00:15:20.105Z,64.86
2023-02-14T00:18:50.180Z,64.52
2023-02-14T00:21:56.588Z,64.15
2023-02-14T00:25:03.943Z,64.49
2023-02-14T00:28:09.801Z,63.99
2023-02-14T00:31:16.482Z,64.18
2023-02-14T00:34:25.633Z,64.15
2023-02-14T00:37:32.461Z,64.38
2023-02-14T00:40:38.198Z,64.44
2023-02-14T00:43:44.757Z,64.31
2023-02-14T00:46:50.642Z,63.92
2023-02-14T00:50:03.012Z,64.10
2023-02-14T00:53:08.866Z,64.00
2023-02-14T00:56:16.439Z,63.31
2023-02-14T00:59:22.422Z,63.56
2023-02-14T01:02:29.053Z,64.01
2023-02-14T01:05:37.501Z,63.66
2023-02-14T01:08:44.449Z,64.31
2023-02-14T01:11:50.227Z,63.51
2023-02-14T01:14:57.024Z,63.16
2023-02-14T01:18:03.622Z,63.59
2023-02-14T01:21:20.952Z,63.27
2023-02-14T01:24:27.707Z,62.95
2023-02-14T01:27:34.333Z,62.55
2023-02-14T01:30:40.254Z,62.30
2023-02-14T01:33:51.990Z,62.10
2023-02-14T01:37:00.421Z,62.26
2023-02-14T01:40:08.807Z,62.61
2023-02-14T01:43:21.902Z,62.24
2023-02-14T01:46:30.795Z,61.73
2023-02-14T01:49:44.108Z,62.28
2023-02-14T01:53:00.798Z,62.94
2023-02-14T01:56:15.678Z,62.95
2023-02-14T01:59:29.463Z,62.75
2023-02-14T02:02:35.262Z,62.48
2023-02-14T02:05:51.402Z,62.49
2023-02-14T02:09:15.252Z,62.30
2023-02-14T02:12:22.292Z,62.37
2023-02-14T02:15:34.305Z,62.35
2023-02-14T02:19:11.368Z,62.45
2023-02-14T02:23:10.332Z,62.51
2023-02-14T02:27:11.547Z,62.69
2023-02-14T02:31:10.832Z,62.42
2023-02-14T02:35:15.192Z,62.74
2023-02-14T02:38:50.104Z,62.43
2023-02-14T02:42:17.872Z,62.58
2023-02-14T02:46:05.067Z,62.04
2023-02-14T02:49:38.941Z,61.88
2023-02-14T02:53:06.459Z,61.92
2023-02-14T02:56:37.812Z,62.08
2023-02-14T02:59:48.941Z,62.26
2023-02-14T03:03:13.344Z,61.77
2023-02-14T03:06:19.125Z,62.28
2023-02-14T03:10:00.433Z,61.76
2023-02-14T03:13:34.602Z,61.76
2023-02-14T03:17:07.908Z,61.55
2023-02-14T03:20:26.240Z,60.97
2023-02-14T03:23:41.936Z,61.18
2023-02-14T03:27:00.168Z,61.05
2023-02-14T03:30:21.373Z,61.05
2023-02-14T03:33:42.113Z,60.60
2023-02-14T03:36:59.326Z,60.93
2023-02-14T03:40:14.017Z,61.33
2023-02-14T03:43:33.826Z,61.20
2023-02-14T03:46:48.718Z,60.53
2023-02-14T03:50:05.248Z,60.71
2023-02-14T03:53:16.263Z,61.50
2023-02-14T03:56:35.344Z,61.47
2023-02-14T03:59:45.885Z,60.89
2023-02-14T04:03:02.947Z,60.69
2023-02-14T04:06:09.580Z,60.26
2023-02-14T04:09:16.401Z,60.10
2023-02-14T04:12:35.941Z,60.11
2023-02-14T04:15:46.980Z,60.36
2023-02-14T04:19:04.992Z,60.07
2023-02-14T04:22:11.564Z,60.32
2023-02-14T04:25:17.905Z,59.99
2023-02-14T04:28:24.583Z,59.80
2023-02-14T04:31:33.260Z,59.44
2023-02-14T04:34:41.027Z,59.96
2023-02-14T04:37:46.859Z,59.35
2023-02-14T04:40:54.145Z,59.09
2023-02-14T04:43:59.918Z,58.74
2023-02-14T04:47:10.607Z,59.08
2023-02-14T04:50:17.624Z,58.76
2023-02-14T04:53:24.659Z,58.67
2023-02-14T04:56:30.595Z,59.36
2023-02-14T04:59:37.478Z,59.20
2023-02-14T05:02:45.816Z,59.35
2023-02-14T05:05:52.489Z,58.26
2023-02-14T05:08:58.600Z,58.45
2023-02-14T05:12:05.377Z,58.21
2023-02-14T05:15:12.703Z,58.36
2023-02-14T05:18:21.999Z,58.69
2023-02-14T05:21:28.651Z,58.79
2023-02-14T05:24:35.332Z,59.28
2023-02-14T05:27:41.133Z,59.34
2023-02-14T05:30:50.139Z,59.50
2023-02-14T05:33:58.546Z,59.81
2023-02-14T05:37:05.371Z,59.95
2023-02-14T05:40:14.065Z,59.95
2023-02-14T05:43:20.612Z,60.06
2023-02-14T05:46:26.351Z,60.34
2023-02-14T05:49:35.486Z,60.66
2023-02-14T05:52:41.690Z,60.60
2023-02-14T05:55:48.312Z,60.83
2023-02-14T05:58:54.036Z,60.80
2023-02-14T06:02:00.625Z,60.87
2023-02-14T06:05:11.853Z,60.73
2023-02-14T06:08:18.489Z,60.97
2023-02-14T06:11:24.309Z,61.08
2023-02-14T06:14:30.931Z,61.17
2023-02-14T06:17:36.809Z,61.01
2023-02-14T06:20:46.040Z,60.67
2023-02-14T06:23:51.826Z,60.67
2023-02-14T06:26:58.386Z,60.77
2023-02-14T06:30:04.830Z,61.09
2023-02-14T06:33:11.560Z,60.54
2023-02-14T06:36:20.398Z,60.67
2023-02-14T06:39:27.192Z,60.76
2023-02-14T06:42:32.973Z,60.51
2023-02-14T06:45:39.586Z,60.64
2023-02-14T06:48:45.806Z,60.09
2023-02-14T06:51:55.121Z,60.36
2023-02-14T06:55:00.962Z,60.19
2023-02-14T06:58:07.849Z,59.88
2023-02-14T07:01:13.755Z,59.93
2023-02-14T07:04:20.725Z,60.13
2023-02-14T07:07:29.266Z,59.59
2023-02-14T07:10:36.014Z,59.73
2023-02-14T07:13:41.841Z,59.82
2023-02-14T07:16:48.538Z,59.72
2023-02-14T07:19:54.269Z,59.82
2023-02-14T07:23:04.721Z,59.83
2023-02-14T07:26:10.814Z,59.90
2023-02-14T07:29:18.671Z,59.91
2023-02-14T07:32:25.911Z,59.99
2023-02-14T07:35:33.239Z,59.86
2023-02-14T07:38:41.722Z,59.81
2023-02-14T07:41:48.330Z,59.89
2023-02-14T07:44:57.712Z,60.01
2023-02-14T07:48:04.796Z,59.86
2023-02-14T07:51:11.355Z,59.93
2023-02-14T07:54:21.226Z,59.79
2023-02-14T08:00:48.290Z,59.63
2023-02-14T08:03:54.540Z,59.27
2023-02-14T08:07:01.195Z,59.68
2023-02-14T08:10:12.990Z,59.30
2023-02-14T08:13:19.926Z,59.11
2023-02-14T08:16:25.856Z,59.39
2023-02-14T08:19:33.504Z,59.31
2023-02-14T08:22:39.336Z,59.53
2023-02-14T08:25:48.708Z,59.24
2023-02-14T08:28:54.628Z,59.62
2023-02-14T08:32:01.937Z,58.24
2023-02-14T08:35:08.152Z,58.88
2023-02-14T08:38:15.039Z,58.89
2023-02-14T08:41:23.530Z,58.86
2023-02-14T08:44:30.407Z,58.52
2023-02-14T08:47:38.656Z,58.16
2023-02-14T08:50:45.897Z,57.99
2023-02-14T08:53:57.052Z,57.59
2023-02-14T08:57:06.861Z,57.91
2023-02-14T09:00:15.359Z,57.45
2023-02-14T09:03:22.787Z,57.60
2023-02-14T09:06:29.849Z,57.75
2023-02-14T09:09:37.543Z,57.39
2023-02-14T09:12:46.265Z,56.91
2023-02-14T09:15:55.441Z,56.83
2023-02-14T09:19:01.409Z,56.19
2023-02-14T09:22:11.216Z,56.49
2023-02-14T09:25:16.998Z,56.56
2023-02-14T09:28:26.159Z,56.27
2023-02-14T09:31:31.995Z,56.09
2023-02-14T09:34:39.380Z,55.58
2023-02-14T09:37:45.107Z,56.38
2023-02-14T09:40:54.725Z,56.42
2023-02-14T09:44:10.218Z,56.19
2023-02-14T09:47:31.998Z,55.69
2023-02-14T09:50:48.924Z,54.64
2023-02-14T09:54:07.121Z,54.76
2023-02-14T09:57:30.727Z,54.91
2023-02-14T10:00:51.831Z,55.06
2023-02-14T10:04:28.639Z,54.98
2023-02-14T10:07:53.281Z,55.75
2023-02-14T10:11:11.685Z,54.44
2023-02-14T10:14:26.230Z,54.24
2023-02-14T10:17:47.165Z,53.95
2023-02-14T10:21:00.772Z,53.65
2023-02-14T10:24:21.050Z,54.01
2023-02-14T10:27:39.771Z,52.67
2023-02-14T10:31:01.670Z,53.35
2023-02-14T10:34:25.464Z,52.90
2023-02-14T10:38:01.022Z,53.81
2023-02-14T10:41:30.177Z,52.77
2023-02-14T10:44:57.276Z,53.07
2023-02-14T10:48:23.295Z,52.85
2023-02-14T10:51:46.923Z,53.26
2023-02-14T10:55:00.108Z,52.90
2023-02-14T10:58:13.019Z,51.77
2023-02-14T11:01:22.606Z,53.07
2023-02-14T11:04:29.143Z,52.84
2023-02-14T11:07:39.845Z,51.82
2023-02-14T11:10:46.138Z,51.26
2023-02-14T11:13:53.656Z,51.35
2023-02-14T11:17:01.937Z,51.73
2023-02-14T11:20:30.668Z,51.94
2023-02-14T11:23:44.104Z,51.70
2023-02-14T11:26:55.732Z,51.90
2023-02-14T11:30:03.264Z,52.15
2023-02-14T11:33:15.732Z,52.62
2023-02-14T11:36:21.808Z,51.44
2023-02-14T11:39:37.106Z,52.13
2023-02-14T11:42:51.646Z,51.51
2023-02-14T11:46:19.190Z,50.56
2023-02-14T11:49:35.050Z,51.39
2023-02-14T11:52:54.992Z,50.17
2023-02-14T11:56:03.914Z,49.97
2023-02-14T11:59:23.574Z,51.13
2023-02-14T12:02:43.562Z,50.50
2023-02-14T12:05:57.429Z,50.15
2023-02-14T12:09:16.249Z,49.76
2023-02-14T12:12:29.160Z,49.74
2023-02-14T12:15:40.893Z,50.35
2023-02-14T12:19:02.501Z,51.09
2023-02-14T12:22:10.345Z,49.93
2023-02-14T12:25:25.698Z,50.77
2023-02-14T12:28:46.068Z,50.81
2023-02-14T12:31:53.501Z,50.46
2023-02-14T12:35:16.276Z,51.41
2023-02-14T12:38:44.787Z,51.11
2023-02-14T12:42:07.954Z,51.43
2023-02-14T12:45:30.276Z,51.25
2023-02-14T12:49:03.278Z,51.21
2023-02-14T12:52:41.389Z,50.91
2023-02-14T12:56:06.712Z,51.82
2023-02-14T12:59:35.304Z,52.23
2023-02-14T13:03:44.202Z,52.05
2023-02-14T13:07:00.490Z,52.02
2023-02-14T13:10:30.155Z,51.30
2023-02-14T13:14:04.565Z,52.10
2023-02-14T13:17:27.418Z,51.54
2023-02-14T13:20:52.454Z,52.44
2023-02-14T13:24:14.099Z,52.42
2023-02-14T13:27:30.391Z,51.80
2023-02-14T13:30:42.258Z,51.89
2023-02-14T13:33:55.600Z,52.14
2023-02-14T13:37:12.554Z,52.00
2023-02-14T13:40:26.762Z,51.48
2023-02-14T13:43:53.131Z,51.39
2023-02-14T13:47:00.054Z,52.05
2023-02-14T13:50:09.480Z,52.84
2023-02-14T13:53:41.896Z,52.04
2023-02-14T13:56:47.768Z,52.93
2023-02-14T14:00:38.316Z,52.28
2023-02-14T14:04:01.957Z,51.83
2023-02-14T14:07:30.180Z,51.83
2023-02-14T14:10:51.853Z,50.89
2023-02-14T14:14:01.972Z,50.88
2023-02-14T14:17:28.388Z,51.43
2023-02-14T14:20:52.667Z,51.33
2023-02-14T14:24:28.284Z,50.84
2023-02-14T14:27:44.956Z,51.71
2023-02-14T14:30:51.895Z,51.77
2023-02-14T14:34:04.287Z,51.00
2023-02-14T14:37:21.353Z,51.63
2023-02-14T14:40:32.188Z,52.04
2023-02-14T14:43:43.856Z,51.66
2023-02-14T14:46:53.931Z,52.02
2023-02-14T14:50:10.864Z,51.64
2023-02-14T14:53:29.406Z,52.41
2023-02-14T14:56:42.362Z,52.80
2023-02-14T14:59:52.219Z,52.97
2023-02-14T15:03:09.761Z,52.35
2023-02-14T15:06:23.137Z,52.32
2023-02-14T15:09:36.384Z,52.61
2023-02-14T15:12:56.542Z,52.64
2023-02-14T15:16:05.778Z,52.42
2023-02-14T15:19:22.567Z,52.19
2023-02-14T15:22:34.000Z,51.83
2023-02-14T15:25:44.759Z,52.10
2023-02-14T15:29:01.306Z,52.12
2023-02-14T15:32:15.439Z,51.88
2023-02-14T15:35:32.104Z,51.86
2023-02-14T15:38:45.206Z,51.80
2023-02-14T15:41:51.154Z,52.23
2023-02-14T15:45:25.604Z,52.68
2023-02-14T15:48:38.016Z,52.78
2023-02-14T15:51:50.533Z,53.11
2023-02-14T15:54:56.454Z,52.88
2023-02-14T15:58:09.894Z,53.56
2023-02-14T16:01:16.929Z,53.32
2023-02-14T16:04:33.277Z,53.36
2023-02-14T16:07:39.203Z,52.97
2023-02-14T16:10:46.270Z,52.83
2023-02-14T16:13:52.084Z,52.69
2023-02-14T16:17:04.822Z,52.12
2023-02-14T16:20:45.472Z,52.78
2023-02-14T16:24:16.018Z,53.13
2023-02-14T16:27:21.863Z,53.16
2023-02-14T16:30:28.927Z,53.56
2023-02-14T16:33:40.111Z,54.34
2023-02-14T16:36:49.656Z,53.62
2023-02-14T16:39:59.567Z,54.09
2023-02-14T16:43:09.507Z,53.88
2023-02-14T16:46:17.709Z,54.10
2023-02-14T16:49:25.591Z,54.41
2023-02-14T16:52:34.486Z,54.13
2023-02-14T16:55:42.701Z,53.76
2023-02-14T16:58:50.380Z,53.17
2023-02-14T17:02:02.872Z,53.15
2023-02-14T17:05:10.131Z,53.32
2023-02-14T17:08:20.720Z,52.78
2023-02-14T17:11:31.080Z,52.70
2023-02-14T17:14:42.729Z,52.92
2023-02-14T17:17:52.204Z,53.18
2023-02-14T17:20:59.435Z,53.55
2023-02-14T17:24:08.819Z,52.95
2023-02-14T17:27:15.564Z,52.96
2023-02-14T17:30:23.343Z,52.86
2023-02-14T17:33:30.693Z,53.55
2023-02-14T17:36:36.887Z,53.41
2023-02-14T17:39:46.268Z,53.40
2023-02-14T17:42:52.206Z,53.79
2023-02-14T17:45:58.880Z,54.37
2023-02-14T17:49:05.480Z,54.29
2023-02-14T17:52:12.322Z,53.74
2023-02-14T17:55:21.041Z,53.71
2023-02-14T17:58:27.754Z,54.00
2023-02-14T18:01:36.375Z,54.33
2023-02-14T18:04:43.205Z,53.86
2023-02-14T18:07:48.960Z,53.24
2023-02-14T18:10:58.977Z,53.65
2023-02-14T18:14:04.980Z,53.32
2023-02-14T18:17:11.848Z,53.38
2023-02-14T18:20:17.687Z,53.40
2023-02-14T18:23:25.003Z,54.39
2023-02-14T18:26:34.683Z,54.13
2023-02-14T18:29:41.608Z,54.25
2023-02-14T18:32:47.995Z,54.20
2023-02-14T18:35:54.564Z,54.52
2023-02-14T18:39:01.185Z,54.70
2023-02-14T18:42:10.468Z,54.70
2023-02-14T18:45:16.405Z,54.08
2023-02-14T18:48:23.146Z,54.26
2023-02-14T18:51:33.502Z,54.55
2023-02-14T18:54:40.539Z,54.74
2023-02-14T18:57:49.052Z,54.31
2023-02-14T19:00:56.679Z,54.19
2023-02-14T19:04:06.206Z,54.37
2023-02-14T19:07:15.715Z,54.31
2023-02-14T19:10:22.070Z,54.03
2023-02-14T19:13:32.483Z,54.70
2023-02-14T19:16:51.263Z,55.27
2023-02-14T19:20:00.097Z,55.40
2023-02-14T19:23:06.668Z,55.27
2023-02-14T19:26:15.169Z,54.78
2023-02-14T19:29:27.455Z,54.48
2023-02-14T19:32:34.105Z,55.21
2023-02-14T19:35:40.393Z,54.90
2023-02-14T19:38:51.351Z,55.23
2023-02-14T19:41:57.151Z,55.25
2023-02-14T19:45:09.950Z,54.58
2023-02-14T19:48:15.928Z,54.58
2023-02-14T19:51:29.073Z,54.65
2023-02-14T19:54:34.995Z,54.54
2023-02-14T19:57:42.493Z,55.09
2023-02-14T20:00:59.629Z,54.68
2023-02-14T20:04:10.332Z,54.01
2023-02-14T20:07:16.893Z,54.29
2023-02-14T20:10:24.003Z,54.12
2023-02-14T20:13:31.384Z,53.69
2023-02-14T20:16:41.688Z,53.62
2023-02-14T20:19:47.585Z,53.75
2023-02-14T20:22:54.139Z,54.14
2023-02-14T20:26:02.923Z,53.46
2023-02-14T20:29:12.828Z,53.81
2023-02-14T20:32:22.018Z,54.13
2023-02-14T20:35:31.774Z,54.11
2023-02-14T20:38:38.541Z,54.40
2023-02-14T20:41:50.210Z,54.20
2023-02-14T20:44:56.200Z,54.45
2023-02-14T20:48:07.262Z,54.56
2023-02-14T20:51:14.994Z,53.95
2023-02-14T20:54:24.723Z,54.13
2023-02-14T20:57:32.420Z,54.32
2023-02-14T21:00:39.470Z,54.17
2023-02-14T21:03:51.228Z,54.39
2023-02-14T21:07:00.399Z,54.02
2023-02-14T21:10:07.417Z,54.31
2023-02-14T21:13:14.155Z,54.39
2023-02-14T21:16:22.850Z,54.45
2023-02-14T21:19:31.996Z,54.10
2023-02-14T21:22:37.942Z,54.66
2023-02-14T21:25:45.084Z,54.83
2023-02-14T21:29:01.141Z,54.69
2023-02-14T21:32:10.418Z,54.48
2023-02-14T21:35:19.345Z,55.28
2023-02-14T21:38:26.507Z,55.27
2023-02-14T21:41:34.696Z,55.59
2023-02-14T21:44:54.366Z,55.56
2023-02-14T21:48:12.540Z,54.76
2023-02-14T21:51:23.115Z,54.40
2023-02-14T21:54:29.037Z,54.51
2023-02-14T21:57:35.878Z,54.76
2023-02-14T22:00:48.260Z,55.02
2023-02-14T22:03:57.028Z,54.73
2023-02-14T22:07:05.564Z,54.73
2023-02-14T22:10:13.972Z,53.99
2023-02-14T22:13:19.775Z,54.75
2023-02-14T22:16:28.546Z,55.02
2023-02-14T22:19:36.930Z,55.27
2023-02-14T22:22:47.363Z,54.84
2023-02-14T22:25:57.525Z,54.58
2023-02-14T22:29:06.137Z,54.54
2023-02-14T22:32:12.054Z,54.90
2023-02-14T22:35:19.166Z,55.29
2023-02-14T22:38:28.258Z,55.37
2023-02-14T22:41:37.880Z,55.08
2023-02-14T22:44:43.908Z,54.62
2023-02-14T22:47:50.533Z,54.54
2023-02-14T22:50:56.266Z,54.53
2023-02-14T22:54:08.631Z,51.54
2023-02-14T22:57:17.032Z,52.77
2023-02-14T23:00:25.051Z,53.81
2023-02-14T23:03:31.099Z,54.14
2023-02-14T23:06:40.286Z,54.79
2023-02-14T23:09:48.672Z,54.78
2023-02-14T23:13:07.816Z,54.12
2023-02-14T23:16:25.962Z,54.17
2023-02-14T23:19:49.327Z,53.89
2023-02-14T23:22:54.999Z,53.51
2023-02-14T23:26:04.334Z,53.58
2023-02-14T23:29:10.108Z,54.17
2023-02-14T23:32:17.619Z,54.16
2023-02-14T23:35:23.399Z,54.40
2023-02-14T23:38:29.974Z,54.83
2023-02-14T23:41:50.373Z,53.67
2023-02-14T23:45:17.004Z,52.89
2023-02-14T23:48:22.798Z,54.34
2023-02-14T23:51:29.367Z,54.18
2023-02-14T23:54:35.842Z,54.54
2023-02-14T23:57:44.959Z,54.23
